createdAt,value
2023-08-26T00:00:13.179Z,71.94
2023-08-26T00:02:40.257Z,71.66
2023-08-26T00:05:07.899Z,71.49
2023-08-26T00:07:35.253Z,71.73
2023-08-26T00:10:02.505Z,71.90
2023-08-26T00:12:31.164Z,71.75
2023-08-26T00:15:04.593Z,71.35
2023-08-26T00:17:34.032Z,71.35
2023-08-26T00:20:02.144Z,71.23
2023-08-26T00:22:31.197Z,71.18
2023-08-26T00:24:58.478Z,70.81
2023-08-26T00:27:25.606Z,70.50
2023-08-26T00:29:52.789Z,70.13
2023-08-26T00:32:22.329Z,69.75
2023-08-26T00:34:49.546Z,69.54
2023-08-26T00:37:16.917Z,69.26
2023-08-26T00:39:44.137Z,68.47
2023-08-26T00:42:11.325Z,67.90
2023-08-26T00:44:38.555Z,67.48
2023-08-26T00:47:06.022Z,67.50
2023-08-26T00:49:35.832Z,67.10
2023-08-26T00:52:03.252Z,67.75
2023-08-26T00:54:33.705Z,67.67
2023-08-26T00:57:01.064Z,67.86
2023-08-26T00:59:28.348Z,66.99
2023-08-26T01:01:56.425Z,66.97
2023-08-26T01:04:23.715Z,66.85
2023-08-26T01:06:50.879Z,66.52
2023-08-26T01:09:20.329Z,67.13
2023-08-26T01:11:58.080Z,66.63
2023-08-26T01:14:35.357Z,67.48
2023-08-26T01:17:05.199Z,67.14
2023-08-26T01:19:35.435Z,67.05
2023-08-26T01:22:06.671Z,67.51
2023-08-26T01:24:35.539Z,68.75
2023-08-26T01:27:03.830Z,68.48
2023-08-26T01:29:31.171Z,68.70
2023-08-26T01:32:36.802Z,69.38
2023-08-26T01:35:08.697Z,69.13
2023-08-26T01:37:40.055Z,68.72
2023-08-26T01:40:11.090Z,68.44
2023-08-26T01:42:41.723Z,68.17
2023-08-26T01:45:09.899Z,68.09
2023-08-26T01:47:37.289Z,68.31
2023-08-26T01:50:04.940Z,67.84
2023-08-26T01:52:32.146Z,68.12
2023-08-26T01:54:59.494Z,69.92
2023-08-26T01:57:26.848Z,68.60
2023-08-26T01:59:54.018Z,67.02
2023-08-26T02:02:22.341Z,66.75
2023-08-26T02:04:49.467Z,66.40
2023-08-26T02:07:18.420Z,66.44
2023-08-26T02:09:45.932Z,65.17
2023-08-26T02:12:13.035Z,65.23
2023-08-26T02:14:40.272Z,65.00
2023-08-26T02:17:27.390Z,64.91
2023-08-26T02:19:55.948Z,65.02
2023-08-26T02:22:23.207Z,65.93
2023-08-26T02:24:50.385Z,67.39
2023-08-26T02:27:19.673Z,68.43
2023-08-26T02:29:46.896Z,69.33
2023-08-26T02:32:14.437Z,69.32
2023-08-26T02:34:41.748Z,66.63
2023-08-26T02:37:08.965Z,65.44
2023-08-26T02:39:37.069Z,63.48
2023-08-26T02:42:04.605Z,63.44
2023-08-26T02:44:32.067Z,65.54
2023-08-26T02:49:41.344Z,63.82
2023-08-26T02:52:09.205Z,64.10
2023-08-26T02:54:36.961Z,63.61
2023-08-26T02:57:04.242Z,65.38
2023-08-26T02:59:31.463Z,65.48
2023-08-26T03:02:00.650Z,66.69
2023-08-26T03:04:27.923Z,67.88
2023-08-26T03:06:55.276Z,68.70
2023-08-26T03:09:22.960Z,68.47
2023-08-26T03:11:50.427Z,68.38
2023-08-26T03:14:17.660Z,68.88
2023-08-26T03:16:45.511Z,69.33
2023-08-26T03:19:14.267Z,68.49
2023-08-26T03:21:44.396Z,69.15
2023-08-26T03:24:14.347Z,69.86
2023-08-26T03:26:43.374Z,70.71
2023-08-26T03:29:15.904Z,70.84
2023-08-26T03:31:44.715Z,71.31
2023-08-26T03:34:15.315Z,71.88
2023-08-26T03:36:45.638Z,72.09
2023-08-26T03:39:15.464Z,71.14
2023-08-26T03:41:43.853Z,71.99
2023-08-26T03:44:14.748Z,72.22
2023-08-26T03:46:41.943Z,71.95
2023-08-26T03:49:15.314Z,72.00
2023-08-26T03:51:42.998Z,72.51
2023-08-26T03:54:10.791Z,70.90
2023-08-26T03:56:38.098Z,70.91
2023-08-26T03:59:06.159Z,71.32
2023-08-26T04:01:44.140Z,70.84
2023-08-26T04:04:11.875Z,70.96
2023-08-26T04:07:09.756Z,70.68
2023-08-26T04:09:37.257Z,70.76
2023-08-26T04:16:25.718Z,70.61
2023-08-26T04:18:53.879Z,70.89
2023-08-26T04:21:23.802Z,70.69
2023-08-26T04:23:53.764Z,70.90
2023-08-26T04:26:21.093Z,69.88
2023-08-26T04:28:50.342Z,70.01
2023-08-26T04:31:17.897Z,69.46
2023-08-26T04:33:45.581Z,69.27
2023-08-26T04:36:13.370Z,68.96
2023-08-26T04:38:40.541Z,69.09
2023-08-26T04:50:38.783Z,68.07
2023-08-26T04:53:06.046Z,69.14
2023-08-26T04:55:59.828Z,67.33
2023-08-26T05:00:50.875Z,64.92
2023-08-26T05:03:53.157Z,64.59
2023-08-26T05:07:20.013Z,64.67
2023-08-26T05:10:14.396Z,65.14
2023-08-26T05:13:57.884Z,64.88
2023-08-26T05:16:26.292Z,65.21
2023-08-26T05:19:25.261Z,64.29
2023-08-26T05:23:09.000Z,65.86
2023-08-26T05:25:37.019Z,64.46
2023-08-26T05:28:08.114Z,64.55
2023-08-26T05:34:42.717Z,62.26
2023-08-26T05:37:10.880Z,61.99
2023-08-26T05:45:04.230Z,61.32
2023-08-26T05:48:52.053Z,60.75
2023-08-26T05:55:52.423Z,60.29
2023-08-26T05:58:19.769Z,60.39
2023-08-26T06:00:48.434Z,60.30
2023-08-26T06:03:21.006Z,59.21
2023-08-26T06:05:48.274Z,59.47
2023-08-26T06:09:34.905Z,59.63
2023-08-26T06:17:31.910Z,59.57
2023-08-26T06:24:43.426Z,60.53
2023-08-26T06:53:13.183Z,59.47
2023-08-26T07:03:23.259Z,60.48
2023-08-26T07:21:54.508Z,56.96
2023-08-26T07:24:22.292Z,55.98
2023-08-26T07:33:55.094Z,55.02
2023-08-26T07:40:34.782Z,55.02
2023-08-26T07:47:17.484Z,54.04
2023-08-26T07:50:12.633Z,54.08
2023-08-26T07:56:25.739Z,54.86
2023-08-26T11:11:41.681Z,88.99
2023-08-26T13:51:43.518Z,100.00
2023-08-26T15:19:14.757Z,100.00
2023-08-26T15:24:52.939Z,100.00
2023-08-26T15:27:29.686Z,100.00
2023-08-26T15:29:58.029Z,100.00
2023-08-26T15:32:25.457Z,100.00
2023-08-26T15:34:56.976Z,100.00
2023-08-26T15:40:07.439Z,100.00
2023-08-26T15:42:40.514Z,100.00
2023-08-26T15:45:18.448Z,100.00
2023-08-26T15:47:49.382Z,100.00
2023-08-26T15:58:47.697Z,100.00
2023-08-26T16:51:26.813Z,100.00
2023-08-26T17:20:56.839Z,100.00
2023-08-26T17:37:05.860Z,100.00
2023-08-26T17:39:42.108Z,100.00
2023-08-26T17:42:12.867Z,100.00
2023-08-26T18:04:10.951Z,100.00
2023-08-26T18:11:15.276Z,100.00
2023-08-26T18:13:45.921Z,100.00
2023-08-26T18:16:13.525Z,100.00
2023-08-26T18:18:40.859Z,100.00
2023-08-26T18:37:16.381Z,100.00
2023-08-26T18:39:44.151Z,100.00
2023-08-26T18:42:13.465Z,100.00
2023-08-26T18:46:41.900Z,100.00
2023-08-26T18:49:09.254Z,100.00
2023-08-26T18:51:36.444Z,100.00
2023-08-26T18:54:03.832Z,100.00
2023-08-26T18:56:31.296Z,100.00
2023-08-26T19:03:28.788Z,100.00
2023-08-26T19:05:56.225Z,100.00
2023-08-26T19:08:23.656Z,100.00
2023-08-26T19:15:34.352Z,100.00
2023-08-26T19:20:00.967Z,100.00
2023-08-26T19:22:28.497Z,100.00
2023-08-26T19:24:57.347Z,100.00
2023-08-26T19:32:35.677Z,100.00
2023-08-26T19:35:03.039Z,100.00
2023-08-26T19:37:30.313Z,100.00
2023-08-26T19:39:57.692Z,100.00
2023-08-26T19:42:25.417Z,100.00
2023-08-26T19:49:25.690Z,100.00
2023-08-26T19:59:12.243Z,100.00
2023-08-26T20:01:39.737Z,100.00
2023-08-26T20:13:31.574Z,100.00
2023-08-26T20:20:31.694Z,100.00
2023-08-26T20:22:59.115Z,100.00
2023-08-26T20:25:34.960Z,100.00
2023-08-26T20:29:55.992Z,100.00
2023-08-26T20:32:23.599Z,100.00
2023-08-26T20:34:51.307Z,100.00
2023-08-26T20:59:33.401Z,100.00
2023-08-26T21:02:01.892Z,100.00
2023-08-26T21:12:05.885Z,100.00
2023-08-26T21:15:51.201Z,100.00
2023-08-26T21:24:38.372Z,100.00
2023-08-26T21:30:38.635Z,100.00
2023-08-26T22:02:03.157Z,100.00
2023-08-26T22:37:50.101Z,100.00
2023-08-26T22:40:17.803Z,100.00
2023-08-26T22:47:08.024Z,100.00
2023-08-26T22:49:35.527Z,100.00
2023-08-26T22:52:02.876Z,100.00
2023-08-26T22:54:30.130Z,100.00
2023-08-26T23:08:36.206Z,100.00
2023-08-26T23:11:06.526Z,100.00
2023-08-26T23:13:33.777Z,100.00
2023-08-26T23:16:01.299Z,100.00
2023-08-26T23:22:54.460Z,100.00
2023-08-26T23:25:21.889Z,100.00
2023-08-26T23:55:56.076Z,100.00
2023-08-26T23:58:23.442Z,100.00
